Meteorología y climatología de Navarra
Datos de la estación - Meteo Navarra

Estación de Aoiz GN

Altitud 534 m.


Datos desde el 15/02/2020 hasta el 16/02/2020 en horario solar
Los datos son PROVISIONALES

Anterior Página 1 de 1 Siguiente Descargar: Formato para Excel 2000 o superior   Formato csv   Formato para OpenOffice Calc
Fecha Temperatura Humedad relativa Radiación global Insolación Precipitación Vel. viento 10 m Vel. viento 10 m Dir. viento 10 m
ºC % W/m² s l/m² m/s km/h º
15/02/2020 0:00 6.0 86 0.0 0 0.0 1.9 6.7 19
15/02/2020 0:10 5.9 86 0.0 0 0.0 0.6 2.2 39
15/02/2020 0:20 5.6 88 0.0 0 0.0 0.8 2.7 71
15/02/2020 0:30 5.4 89 0.0 0 0.0 0.5 1.8 80
15/02/2020 0:40 5.2 89 0.0 0 0.0 1.1 3.8 66
15/02/2020 0:50 5.2 89 0.0 0 0.0 1.6 5.9 27
15/02/2020 1:00 5.4 89 0.0 0 0.0 1.5 5.3 38
15/02/2020 1:10 5.3 89 0.0 0 0.0 1.7 5.9 22
15/02/2020 1:20 5.2 88 0.0 0 0.0 0.9 3.2 90
15/02/2020 1:30 4.9 90 0.0 0 0.0 1.5 5.3 38
15/02/2020 1:40 5.0 89 0.0 0 0.0 1.2 4.5 11
15/02/2020 1:50 4.9 89 0.0 0 0.0 1.5 5.3 9
15/02/2020 2:00 5.0 89 0.0 0 0.0 1.2 4.2 9
15/02/2020 2:10 4.8 89 0.0 0 0.0 0.2 0.7 54
15/02/2020 2:20 4.5 91 0.0 0 0.0 0.7 2.4 83
15/02/2020 2:30 4.3 91 0.0 0 0.0 0.4 1.5 73
15/02/2020 2:40 4.2 92 0.0 0 0.0 1.1 3.8 52
15/02/2020 2:50 4.4 92 0.0 0 0.0 1.1 3.8 38
15/02/2020 3:00 4.2 92 0.0 0 0.0 1.6 5.6 46
15/02/2020 3:10 4.2 92 0.0 0 0.0 1.5 5.2 31
15/02/2020 3:20 4.1 92 0.0 0 0.0 1.0 3.4 46
15/02/2020 3:30 3.9 92 0.0 0 0.0 0.3 1.1 301
15/02/2020 3:40 3.8 92 0.0 0 0.0 0.8 2.9 48
15/02/2020 3:50 3.7 93 0.0 0 0.0 0.6 2.3 79
15/02/2020 4:00 3.6 93 0.0 0 0.0 0.6 2.1 261
15/02/2020 4:10 3.3 93 0.0 0 0.0 0.6 2.0 246
15/02/2020 4:20 3.1 94 0.0 0 0.0 0.0 0.0 245
15/02/2020 4:30 2.9 95 0.0 0 0.0 0.7 2.4 115
15/02/2020 4:40 2.9 96 0.0 0 0.0 0.5 1.8 253
15/02/2020 4:50 3.0 96 0.0 0 0.0 0.1 0.3 273
15/02/2020 5:00 2.8 95 0.0 0 0.0 0.3 1.2 116
15/02/2020 5:10 2.5 96 0.0 0 0.0 0.7 2.4 290
15/02/2020 5:20 2.7 96 0.0 0 0.0 0.6 2.2 250
15/02/2020 5:30 2.6 95 0.0 0 0.0 0.4 1.6 281
15/02/2020 5:40 2.7 96 0.0 0 0.0 1.3 4.6 61
15/02/2020 5:50 2.8 96 0.0 0 0.0 0.4 1.6 307
15/02/2020 6:00 2.8 96 0.0 0 0.0 0.5 1.8 137
15/02/2020 6:10 2.6 95 0.0 0 0.0 0.3 1.1 116
15/02/2020 6:20 2.5 96 0.0 0 0.0 0.5 1.8 304
15/02/2020 6:30 2.3 95 0.0 0 0.0 0.6 2.3 148
15/02/2020 6:40 2.2 97 0.0 0 0.0 1.4 5.2 69
15/02/2020 6:50 2.6 97 0.0 0 0.0 1.2 4.4 13
15/02/2020 7:00 2.8 95 0.0 0 0.0 0.3 1.2 127
15/02/2020 7:10 2.7 96 0.0 0 0.0 0.5 1.8 107
15/02/2020 7:20 2.5 95 0.2 0 0.0 0.6 2.2 278
15/02/2020 7:30 2.4 95 14.8 0 0.0 0.2 0.5 277
15/02/2020 7:40 2.4 96 23.3 0 0.0 0.8 2.7 67
15/02/2020 7:50 2.5 96 29.0 0 0.0 0.5 1.7 341
15/02/2020 8:00 2.3 95 33.8 0 0.0 0.1 0.3 295
15/02/2020 8:10 2.2 95 108.3 450 0.0 0.1 0.4 295
15/02/2020 8:20 2.9 95 158.4 600 0.0 0.1 0.2 294
15/02/2020 8:30 3.9 91 197.2 600 0.0 0.1 0.5 305
15/02/2020 8:40 4.4 89 234.0 600 0.0 0.1 0.5 277
15/02/2020 8:50 5.2 86 260.1 600 0.0 0.4 1.4 127
15/02/2020 9:00 6.0 84 287.9 600 0.0 0.6 2.1 101
15/02/2020 9:10 6.2 82 311.8 600 0.0 1.8 6.3 246
15/02/2020 9:20 6.0 85 330.3 600 0.0 1.2 4.2 228
15/02/2020 9:30 6.6 82 352.7 600 0.0 0.5 1.9 199
15/02/2020 9:40 7.1 80 379.1 600 0.0 0.4 1.5 235
15/02/2020 9:50 8.2 77 409.2 600 0.0 0.7 2.6 143
15/02/2020 10:00 8.4 75 438.0 600 0.0 1.9 6.8 244
15/02/2020 10:10 8.4 76 461.1 600 0.0 1.1 4.0 222
15/02/2020 10:20 9.0 73 480.6 600 0.0 0.7 2.6 218
15/02/2020 10:30 9.2 73 501.5 600 0.0 1.2 4.2 253
15/02/2020 10:40 9.7 71 520.1 600 0.0 1.6 5.9 251
15/02/2020 10:50 10.3 70 536.1 600 0.0 1.4 4.9 220
15/02/2020 11:00 10.7 70 552.3 600 0.0 1.4 4.9 225
15/02/2020 11:10 11.3 68 565.3 600 0.0 1.3 4.8 257
15/02/2020 11:20 12.0 65 577.7 600 0.0 1.5 5.4 258
15/02/2020 11:30 12.6 62 588.9 600 0.0 2.1 7.4 218
15/02/2020 11:40 13.8 59 596.6 600 0.0 1.9 6.7 123
15/02/2020 11:50 14.5 57 602.9 600 0.0 2.1 7.6 138
15/02/2020 12:00 14.7 57 608.9 600 0.0 2.2 8.1 142
15/02/2020 12:10 14.5 58 612.8 600 0.0 2.4 8.5 136
15/02/2020 12:20 15.4 56 613.6 600 0.0 2.4 8.5 127
15/02/2020 12:30 15.5 57 615.6 600 0.0 3.1 11.2 127
15/02/2020 12:40 15.3 57 618.6 600 0.0 3.9 14.2 124
15/02/2020 12:50 15.9 56 624.4 600 0.0 3.1 11.2 121
15/02/2020 13:00 15.8 57 564.8 600 0.0 3.5 12.6 123
15/02/2020 13:10 15.7 58 555.9 600 0.0 3.6 13.1 130
15/02/2020 13:20 15.8 58 544.5 600 0.0 3.8 13.7 120
15/02/2020 13:30 15.9 58 448.3 600 0.0 4.2 15.0 120
15/02/2020 13:40 15.5 60 486.7 600 0.0 3.7 13.4 124
15/02/2020 13:50 15.7 60 459.1 600 0.0 3.3 12.0 137
15/02/2020 14:00 15.6 60 378.7 600 0.0 3.0 10.9 146
15/02/2020 14:10 15.6 61 344.5 600 0.0 2.7 9.5 142
15/02/2020 14:20 15.8 60 402.4 600 0.0 3.3 11.8 135
15/02/2020 14:30 16.0 60 326.0 600 0.0 2.0 7.1 142
15/02/2020 14:40 16.2 55 299.1 600 0.0 2.4 8.6 172
15/02/2020 14:50 16.2 53 262.1 600 0.0 2.6 9.2 203
15/02/2020 15:00 15.9 51 229.9 560 0.0 3.0 10.7 203
15/02/2020 15:10 16.0 50 206.5 108 0.0 2.5 9.0 199
15/02/2020 15:20 16.0 50 195.2 88 0.0 1.4 5.0 186
15/02/2020 15:30 16.0 48 172.5 2 0.0 2.2 7.9 175
15/02/2020 15:40 15.7 47 149.9 0 0.0 2.3 8.4 188
15/02/2020 15:50 15.8 48 138.2 0 0.0 1.2 4.2 167
15/02/2020 16:00 15.7 48 118.8 0 0.0 2.1 7.6 144
15/02/2020 16:10 15.6 50 94.1 0 0.0 1.6 5.6 137
15/02/2020 16:20 15.4 53 80.2 0 0.0 1.5 5.5 121
15/02/2020 16:30 15.2 55 63.3 0 0.0 2.4 8.5 95
15/02/2020 16:40 15.0 57 49.1 0 0.0 2.1 7.5 93
15/02/2020 16:50 14.9 57 39.5 0 0.0 2.0 7.1 95
15/02/2020 17:00 14.7 59 34.2 0 0.0 1.9 6.8 82
15/02/2020 17:10 14.7 59 25.6 0 0.0 1.7 6.0 86
15/02/2020 17:20 14.4 61 6.6 0 0.0 1.7 6.0 71
15/02/2020 17:30 14.2 62 0.0 0 0.0 1.5 5.3 66
15/02/2020 17:40 13.2 67 0.0 0 0.0 1.1 4.0 72
15/02/2020 17:50 13.2 67 0.0 0 0.0 1.3 4.8 85
15/02/2020 18:00 13.4 66 0.0 0 0.0 1.2 4.3 100
15/02/2020 18:10 13.7 65 0.0 0 0.0 1.1 4.1 78
15/02/2020 18:20 13.2 67 0.0 0 0.0 0.8 3.0 57
15/02/2020 18:30 12.8 70 0.0 0 0.0 1.0 3.6 41
15/02/2020 18:40 12.0 72 0.0 0 0.0 0.8 3.0 46
15/02/2020 18:50 11.9 73 0.0 0 0.0 0.8 2.7 307
15/02/2020 19:00 12.1 72 0.0 0 0.0 0.9 3.2 314
15/02/2020 19:10 11.1 76 0.0 0 0.0 0.8 2.7 77
15/02/2020 19:20 10.5 78 0.0 0 0.0 0.8 2.8 55
15/02/2020 19:30 10.8 77 0.0 0 0.0 1.0 3.5 50
15/02/2020 19:40 11.0 76 0.0 0 0.0 0.8 2.8 83
15/02/2020 19:50 10.3 78 0.0 0 0.0 1.3 4.7 255
15/02/2020 20:00 10.3 79 0.0 0 0.0 1.1 3.8 264
15/02/2020 20:10 9.9 80 0.0 0 0.0 0.2 0.7 277
15/02/2020 20:20 9.0 84 0.0 0 0.0 0.6 2.2 25
15/02/2020 20:30 9.6 82 0.0 0 0.0 0.4 1.4 40
15/02/2020 20:40 10.5 77 0.0 0 0.0 1.1 3.8 47
15/02/2020 20:50 11.2 73 0.0 0 0.0 1.6 5.7 53
15/02/2020 21:00 10.7 75 0.0 0 0.0 1.3 4.7 49
15/02/2020 21:10 9.7 79 0.0 0 0.0 1.0 3.6 68
15/02/2020 21:20 8.7 85 0.0 0 0.0 1.0 3.6 46
15/02/2020 21:30 8.8 84 0.0 0 0.0 0.2 0.8 56
15/02/2020 21:40 8.9 83 0.0 0 0.0 0.2 0.6 4
15/02/2020 21:50 8.6 83 0.0 0 0.0 1.0 3.6 41
15/02/2020 22:00 8.4 85 0.0 0 0.0 0.5 1.8 51
15/02/2020 22:10 8.5 84 0.0 0 0.0 0.9 3.4 58
15/02/2020 22:20 9.3 81 0.0 0 0.0 1.6 5.8 49
15/02/2020 22:30 9.2 81 0.0 0 0.0 1.1 3.8 67
15/02/2020 22:40 8.4 85 0.0 0 0.0 0.5 1.9 70
15/02/2020 22:50 7.9 85 0.0 0 0.0 1.3 4.6 265
15/02/2020 23:00 7.3 88 0.0 0 0.0 1.3 4.6 292
15/02/2020 23:10 7.9 87 0.0 0 0.0 0.8 3.0 357
15/02/2020 23:20 8.0 85 0.0 0 0.0 0.8 2.9 49
15/02/2020 23:30 7.9 86 0.0 0 0.0 0.3 1.2 62
15/02/2020 23:40 8.1 85 0.0 0 0.0 1.0 3.5 230
15/02/2020 23:50 8.1 84 0.0 0 0.0 0.9 3.2 215
Anterior Página 1 de 1 Siguiente

NOTA: Tipo de datos según el color:
   - Valores diarios o 10 minutos correctos
   - Valores diarios calculados a partir de un número de datos 10 minutos menor que 144 y mayor que 120, o de un número de datos semihorarios menor que 48 y mayor que 40 (caso de las estaciones de INTIA y del Ministerio)
   - Valores diez minutos estimados


Contacto        Enlaces        Aviso legal